sensor_id;sensor_type;location;lat;lon;timestamp;temperature;humidity
33803;DHT22;20110;53.120;5.786;2023-01-04T00:01:17;6.90;99.90
33803;DHT22;20110;53.120;5.786;2023-01-04T00:03:44;6.90;99.90
33803;DHT22;20110;53.120;5.786;2023-01-04T00:06:13;7.00;99.90
33803;DHT22;20110;53.120;5.786;2023-01-04T00:08:40;7.00;99.90
33803;DHT22;20110;53.120;5.786;2023-01-04T00:11:18;7.00;99.90
33803;DHT22;20110;53.120;5.786;2023-01-04T00:13:47;7.10;99.90
33803;DHT22;20110;53.120;5.786;2023-01-04T00:16:20;7.00;99.90
33803;DHT22;20110;53.120;5.786;2023-01-04T00:18:48;7.00;99.90
33803;DHT22;20110;53.120;5.786;2023-01-04T00:21:17;7.00;99.90
33803;DHT22;20110;53.120;5.786;2023-01-04T00:23:47;7.00;99.90
33803;DHT22;20110;53.120;5.786;2023-01-04T00:26:27;7.00;99.90
33803;DHT22;20110;53.120;5.786;2023-01-04T00:28:59;7.10;99.90
33803;DHT22;20110;53.120;5.786;2023-01-04T00:31:28;7.10;99.90
33803;DHT22;20110;53.120;5.786;2023-01-04T00:33:59;7.10;99.90
33803;DHT22;20110;53.120;5.786;2023-01-04T00:36:27;7.10;99.90
33803;DHT22;20110;53.120;5.786;2023-01-04T00:38:53;7.10;99.90
33803;DHT22;20110;53.120;5.786;2023-01-04T00:41:36;7.10;99.90
33803;DHT22;20110;53.120;5.786;2023-01-04T00:44:10;7.10;99.90
33803;DHT22;20110;53.120;5.786;2023-01-04T00:46:37;7.10;99.90
33803;DHT22;20110;53.120;5.786;2023-01-04T00:49:05;7.10;99.90
33803;DHT22;20110;53.120;5.786;2023-01-04T00:51:34;7.10;99.90
33803;DHT22;20110;53.120;5.786;2023-01-04T00:54:04;7.10;99.90
33803;DHT22;20110;53.120;5.786;2023-01-04T00:56:32;7.10;99.90
33803;DHT22;20110;53.120;5.786;2023-01-04T00:59:00;7.10;99.90
33803;DHT22;20110;53.120;5.786;2023-01-04T01:01:28;7.20;99.90
33803;DHT22;20110;53.120;5.786;2023-01-04T01:03:56;7.10;99.90
33803;DHT22;20110;53.120;5.786;2023-01-04T01:06:24;7.10;99.90
33803;DHT22;20110;53.120;5.786;2023-01-04T01:08:52;7.10;99.90
33803;DHT22;20110;53.120;5.786;2023-01-04T01:11:19;7.20;99.90
33803;DHT22;20110;53.120;5.786;2023-01-04T01:13:45;7.20;99.90
33803;DHT22;20110;53.120;5.786;2023-01-04T01:16:15;7.20;99.90
33803;DHT22;20110;53.120;5.786;2023-01-04T01:18:44;7.20;99.90
33803;DHT22;20110;53.120;5.786;2023-01-04T01:21:17;7.20;99.90
33803;DHT22;20110;53.120;5.786;2023-01-04T01:23:46;7.20;99.90
33803;DHT22;20110;53.120;5.786;2023-01-04T01:26:15;7.10;99.90
33803;DHT22;20110;53.120;5.786;2023-01-04T01:28:43;7.20;99.90
33803;DHT22;20110;53.120;5.786;2023-01-04T01:31:21;7.20;99.90
33803;DHT22;20110;53.120;5.786;2023-01-04T01:33:53;7.20;99.90
33803;DHT22;20110;53.120;5.786;2023-01-04T01:36:22;7.20;99.90
33803;DHT22;20110;53.120;5.786;2023-01-04T01:38:49;7.20;99.90
33803;DHT22;20110;53.120;5.786;2023-01-04T01:41:21;7.20;99.90
33803;DHT22;20110;53.120;5.786;2023-01-04T01:43:53;7.20;99.90
33803;DHT22;20110;53.120;5.786;2023-01-04T01:46:28;7.20;99.90
33803;DHT22;20110;53.120;5.786;2023-01-04T01:49:00;7.30;99.90
33803;DHT22;20110;53.120;5.786;2023-01-04T01:51:30;7.30;99.90
33803;DHT22;20110;53.120;5.786;2023-01-04T01:54:12;7.30;99.90
33803;DHT22;20110;53.120;5.786;2023-01-04T01:56:42;7.30;99.90
33803;DHT22;20110;53.120;5.786;2023-01-04T01:59:11;7.30;99.90
33803;DHT22;20110;53.120;5.786;2023-01-04T02:01:39;7.30;99.90
33803;DHT22;20110;53.120;5.786;2023-01-04T02:04:06;7.30;99.90
33803;DHT22;20110;53.120;5.786;2023-01-04T02:06:38;7.40;99.90
33803;DHT22;20110;53.120;5.786;2023-01-04T02:09:07;7.40;99.90
33803;DHT22;20110;53.120;5.786;2023-01-04T02:11:33;7.40;99.90
33803;DHT22;20110;53.120;5.786;2023-01-04T02:14:00;7.40;99.90
33803;DHT22;20110;53.120;5.786;2023-01-04T02:23:18;7.40;99.90
33803;DHT22;20110;53.120;5.786;2023-01-04T02:30:02;7.30;99.90
33803;DHT22;20110;53.120;5.786;2023-01-04T02:38:57;7.30;99.90
33803;DHT22;20110;53.120;5.786;2023-01-04T02:41:43;7.30;99.90
33803;DHT22;20110;53.120;5.786;2023-01-04T02:44:18;7.30;99.90
33803;DHT22;20110;53.120;5.786;2023-01-04T02:47:14;7.30;99.90
33803;DHT22;20110;53.120;5.786;2023-01-04T02:50:33;7.30;99.90
33803;DHT22;20110;53.120;5.786;2023-01-04T02:53:04;7.40;99.90
33803;DHT22;20110;53.120;5.786;2023-01-04T03:09:12;7.50;99.90
33803;DHT22;20110;53.120;5.786;2023-01-04T03:12:00;7.60;99.90
33803;DHT22;20110;53.120;5.786;2023-01-04T03:15:12;7.70;99.90
33803;DHT22;20110;53.120;5.786;2023-01-04T03:17:48;7.70;99.90
33803;DHT22;20110;53.120;5.786;2023-01-04T03:20:19;7.90;99.90
33803;DHT22;20110;53.120;5.786;2023-01-04T03:23:05;7.90;99.90
33803;DHT22;20110;53.120;5.786;2023-01-04T03:28:52;8.00;99.90
33803;DHT22;20110;53.120;5.786;2023-01-04T03:31:48;8.10;99.90
33803;DHT22;20110;53.120;5.786;2023-01-04T03:34:38;8.10;99.90
33803;DHT22;20110;53.120;5.786;2023-01-04T03:37:29;8.20;99.90
33803;DHT22;20110;53.120;5.786;2023-01-04T03:43:22;8.30;99.90
33803;DHT22;20110;53.120;5.786;2023-01-04T03:46:47;8.50;99.90
33803;DHT22;20110;53.120;5.786;2023-01-04T03:49:51;8.50;99.90
33803;DHT22;20110;53.120;5.786;2023-01-04T03:52:26;8.70;99.90
33803;DHT22;20110;53.120;5.786;2023-01-04T03:54:56;8.90;99.90
33803;DHT22;20110;53.120;5.786;2023-01-04T03:57:24;9.00;99.90
33803;DHT22;20110;53.120;5.786;2023-01-04T03:59:59;9.10;99.90
33803;DHT22;20110;53.120;5.786;2023-01-04T04:02:30;9.10;99.90
33803;DHT22;20110;53.120;5.786;2023-01-04T04:04:57;9.20;99.90
33803;DHT22;20110;53.120;5.786;2023-01-04T04:07:42;9.20;99.90
33803;DHT22;20110;53.120;5.786;2023-01-04T04:10:26;9.20;99.90
33803;DHT22;20110;53.120;5.786;2023-01-04T04:12:52;9.30;99.90
33803;DHT22;20110;53.120;5.786;2023-01-04T04:15:18;9.20;99.90
33803;DHT22;20110;53.120;5.786;2023-01-04T04:17:45;9.30;99.90
33803;DHT22;20110;53.120;5.786;2023-01-04T04:20:11;9.30;99.90
33803;DHT22;20110;53.120;5.786;2023-01-04T04:22:40;9.20;99.90
33803;DHT22;20110;53.120;5.786;2023-01-04T04:25:06;9.20;99.90
33803;DHT22;20110;53.120;5.786;2023-01-04T04:27:32;9.30;99.90
33803;DHT22;20110;53.120;5.786;2023-01-04T04:29:58;9.20;99.90
33803;DHT22;20110;53.120;5.786;2023-01-04T04:32:24;9.30;99.90
33803;DHT22;20110;53.120;5.786;2023-01-04T04:34:51;9.40;99.90
33803;DHT22;20110;53.120;5.786;2023-01-04T04:37:16;9.40;99.90
33803;DHT22;20110;53.120;5.786;2023-01-04T04:39:42;9.40;99.90
33803;DHT22;20110;53.120;5.786;2023-01-04T04:42:08;9.40;99.90
33803;DHT22;20110;53.120;5.786;2023-01-04T04:44:34;9.40;99.90
33803;DHT22;20110;53.120;5.786;2023-01-04T04:47:00;9.40;99.90
33803;DHT22;20110;53.120;5.786;2023-01-04T04:49:26;9.40;99.90
33803;DHT22;20110;53.120;5.786;2023-01-04T04:51:52;9.40;99.90
33803;DHT22;20110;53.120;5.786;2023-01-04T04:54:19;9.50;99.90
33803;DHT22;20110;53.120;5.786;2023-01-04T04:56:47;9.50;99.90
33803;DHT22;20110;53.120;5.786;2023-01-04T04:59:14;9.40;99.90
33803;DHT22;20110;53.120;5.786;2023-01-04T05:01:40;9.40;99.90
33803;DHT22;20110;53.120;5.786;2023-01-04T05:04:06;9.40;99.90
33803;DHT22;20110;53.120;5.786;2023-01-04T05:06:32;9.40;99.90
33803;DHT22;20110;53.120;5.786;2023-01-04T05:08:58;9.40;99.90
33803;DHT22;20110;53.120;5.786;2023-01-04T05:11:24;9.40;99.90
33803;DHT22;20110;53.120;5.786;2023-01-04T05:14:09;9.40;99.90
33803;DHT22;20110;53.120;5.786;2023-01-04T05:16:35;9.40;99.90
33803;DHT22;20110;53.120;5.786;2023-01-04T05:19:01;9.30;99.90
33803;DHT22;20110;53.120;5.786;2023-01-04T05:21:27;9.30;99.90
33803;DHT22;20110;53.120;5.786;2023-01-04T05:23:53;9.30;99.90
33803;DHT22;20110;53.120;5.786;2023-01-04T05:26:19;9.30;99.90
33803;DHT22;20110;53.120;5.786;2023-01-04T05:28:45;9.30;99.90
33803;DHT22;20110;53.120;5.786;2023-01-04T05:31:11;9.20;99.90
33803;DHT22;20110;53.120;5.786;2023-01-04T05:33:38;9.30;99.90
33803;DHT22;20110;53.120;5.786;2023-01-04T05:36:04;9.30;99.90
33803;DHT22;20110;53.120;5.786;2023-01-04T05:38:30;9.30;99.90
33803;DHT22;20110;53.120;5.786;2023-01-04T05:40:57;9.30;99.90
33803;DHT22;20110;53.120;5.786;2023-01-04T05:43:23;9.30;99.90
33803;DHT22;20110;53.120;5.786;2023-01-04T05:45:52;9.40;99.90
33803;DHT22;20110;53.120;5.786;2023-01-04T05:48:19;9.40;99.90
33803;DHT22;20110;53.120;5.786;2023-01-04T05:50:46;9.40;99.90
33803;DHT22;20110;53.120;5.786;2023-01-04T05:53:14;9.30;99.90
33803;DHT22;20110;53.120;5.786;2023-01-04T05:55:46;9.30;99.90
33803;DHT22;20110;53.120;5.786;2023-01-04T05:58:13;9.30;99.90
33803;DHT22;20110;53.120;5.786;2023-01-04T06:00:39;9.40;99.90
33803;DHT22;20110;53.120;5.786;2023-01-04T06:03:05;9.40;99.90
33803;DHT22;20110;53.120;5.786;2023-01-04T06:05:31;9.40;99.90
33803;DHT22;20110;53.120;5.786;2023-01-04T06:07:57;9.40;99.90
33803;DHT22;20110;53.120;5.786;2023-01-04T06:10:23;9.40;99.90
33803;DHT22;20110;53.120;5.786;2023-01-04T06:12:48;9.30;99.90
33803;DHT22;20110;53.120;5.786;2023-01-04T06:15:14;9.30;99.90
33803;DHT22;20110;53.120;5.786;2023-01-04T06:17:40;9.30;99.90
33803;DHT22;20110;53.120;5.786;2023-01-04T06:20:08;9.20;99.90
33803;DHT22;20110;53.120;5.786;2023-01-04T06:22:36;9.20;99.90
33803;DHT22;20110;53.120;5.786;2023-01-04T06:25:03;9.30;99.90
33803;DHT22;20110;53.120;5.786;2023-01-04T06:27:29;9.30;99.90
33803;DHT22;20110;53.120;5.786;2023-01-04T06:29:55;9.30;99.90
33803;DHT22;20110;53.120;5.786;2023-01-04T06:32:21;9.30;99.90
33803;DHT22;20110;53.120;5.786;2023-01-04T06:34:47;9.20;99.90
33803;DHT22;20110;53.120;5.786;2023-01-04T06:37:12;9.20;99.90
33803;DHT22;20110;53.120;5.786;2023-01-04T06:39:38;9.30;99.90
33803;DHT22;20110;53.120;5.786;2023-01-04T06:42:04;9.30;99.90
33803;DHT22;20110;53.120;5.786;2023-01-04T06:44:30;9.30;99.90
33803;DHT22;20110;53.120;5.786;2023-01-04T06:46:56;9.40;99.90
33803;DHT22;20110;53.120;5.786;2023-01-04T06:49:22;9.40;99.90
33803;DHT22;20110;53.120;5.786;2023-01-04T06:51:48;9.40;99.90
33803;DHT22;20110;53.120;5.786;2023-01-04T06:54:13;9.40;99.90
33803;DHT22;20110;53.120;5.786;2023-01-04T06:56:40;9.40;99.90
33803;DHT22;20110;53.120;5.786;2023-01-04T06:59:06;9.40;99.90
33803;DHT22;20110;53.120;5.786;2023-01-04T07:01:34;9.40;99.90
33803;DHT22;20110;53.120;5.786;2023-01-04T07:04:00;9.40;99.90
33803;DHT22;20110;53.120;5.786;2023-01-04T07:06:26;9.40;99.90
33803;DHT22;20110;53.120;5.786;2023-01-04T07:08:52;9.40;99.90
33803;DHT22;20110;53.120;5.786;2023-01-04T07:11:19;9.40;99.90
33803;DHT22;20110;53.120;5.786;2023-01-04T07:13:45;9.40;99.90
33803;DHT22;20110;53.120;5.786;2023-01-04T07:16:11;9.40;99.90
33803;DHT22;20110;53.120;5.786;2023-01-04T07:18:37;9.30;99.90
33803;DHT22;20110;53.120;5.786;2023-01-04T07:21:03;9.40;99.90
33803;DHT22;20110;53.120;5.786;2023-01-04T07:23:28;9.40;99.90
33803;DHT22;20110;53.120;5.786;2023-01-04T07:25:54;9.30;99.90
33803;DHT22;20110;53.120;5.786;2023-01-04T07:28:20;9.40;99.90
33803;DHT22;20110;53.120;5.786;2023-01-04T07:31:06;9.40;99.90
33803;DHT22;20110;53.120;5.786;2023-01-04T07:33:32;9.30;99.90
33803;DHT22;20110;53.120;5.786;2023-01-04T07:36:03;9.30;99.90
33803;DHT22;20110;53.120;5.786;2023-01-04T07:38:30;9.30;99.90
33803;DHT22;20110;53.120;5.786;2023-01-04T07:40:57;9.20;99.90
33803;DHT22;20110;53.120;5.786;2023-01-04T07:43:23;9.30;99.90
33803;DHT22;20110;53.120;5.786;2023-01-04T07:45:48;9.30;99.90
33803;DHT22;20110;53.120;5.786;2023-01-04T07:48:14;9.40;99.90
33803;DHT22;20110;53.120;5.786;2023-01-04T07:50:40;9.30;99.90
33803;DHT22;20110;53.120;5.786;2023-01-04T07:53:06;9.40;99.90
33803;DHT22;20110;53.120;5.786;2023-01-04T07:55:32;9.40;99.90
33803;DHT22;20110;53.120;5.786;2023-01-04T07:57:58;9.40;99.90
33803;DHT22;20110;53.120;5.786;2023-01-04T08:00:23;9.40;99.90
33803;DHT22;20110;53.120;5.786;2023-01-04T08:02:49;9.40;99.90
33803;DHT22;20110;53.120;5.786;2023-01-04T08:05:15;9.40;99.90
33803;DHT22;20110;53.120;5.786;2023-01-04T08:07:41;9.40;99.90
33803;DHT22;20110;53.120;5.786;2023-01-04T08:10:07;9.40;99.90
33803;DHT22;20110;53.120;5.786;2023-01-04T08:12:35;9.40;99.90
33803;DHT22;20110;53.120;5.786;2023-01-04T08:15:00;9.40;99.90
33803;DHT22;20110;53.120;5.786;2023-01-04T08:17:26;9.30;99.90
33803;DHT22;20110;53.120;5.786;2023-01-04T08:19:52;9.40;99.90
33803;DHT22;20110;53.120;5.786;2023-01-04T08:22:18;9.40;99.90
33803;DHT22;20110;53.120;5.786;2023-01-04T08:24:44;9.30;99.90
33803;DHT22;20110;53.120;5.786;2023-01-04T08:27:09;9.40;99.90
33803;DHT22;20110;53.120;5.786;2023-01-04T08:29:35;9.50;99.90
33803;DHT22;20110;53.120;5.786;2023-01-04T08:32:02;9.40;99.90
33803;DHT22;20110;53.120;5.786;2023-01-04T08:34:29;9.50;99.90
33803;DHT22;20110;53.120;5.786;2023-01-04T08:36:56;9.50;99.90
33803;DHT22;20110;53.120;5.786;2023-01-04T08:39:23;9.50;99.90
33803;DHT22;20110;53.120;5.786;2023-01-04T08:41:48;9.50;99.90
33803;DHT22;20110;53.120;5.786;2023-01-04T08:44:22;9.50;99.90
33803;DHT22;20110;53.120;5.786;2023-01-04T08:46:50;9.50;99.90
33803;DHT22;20110;53.120;5.786;2023-01-04T08:49:18;9.50;99.90
33803;DHT22;20110;53.120;5.786;2023-01-04T08:51:45;9.60;99.90
33803;DHT22;20110;53.120;5.786;2023-01-04T08:54:12;9.60;99.90
33803;DHT22;20110;53.120;5.786;2023-01-04T08:56:38;9.50;99.90
33803;DHT22;20110;53.120;5.786;2023-01-04T08:59:05;9.50;99.90
33803;DHT22;20110;53.120;5.786;2023-01-04T09:01:33;9.50;99.90
33803;DHT22;20110;53.120;5.786;2023-01-04T09:03:59;9.50;99.90
33803;DHT22;20110;53.120;5.786;2023-01-04T09:06:26;9.50;99.90
33803;DHT22;20110;53.120;5.786;2023-01-04T09:08:52;9.60;99.90
33803;DHT22;20110;53.120;5.786;2023-01-04T09:11:20;9.60;99.90
33803;DHT22;20110;53.120;5.786;2023-01-04T09:13:47;9.60;99.90
33803;DHT22;20110;53.120;5.786;2023-01-04T09:16:18;9.60;99.90
33803;DHT22;20110;53.120;5.786;2023-01-04T09:18:45;9.60;99.90
33803;DHT22;20110;53.120;5.786;2023-01-04T09:21:15;9.60;99.90
33803;DHT22;20110;53.120;5.786;2023-01-04T09:23:44;9.70;99.90
33803;DHT22;20110;53.120;5.786;2023-01-04T09:26:18;9.70;99.90
33803;DHT22;20110;53.120;5.786;2023-01-04T09:28:47;9.80;99.90
33803;DHT22;20110;53.120;5.786;2023-01-04T09:31:16;9.80;99.90
33803;DHT22;20110;53.120;5.786;2023-01-04T09:33:44;9.80;99.90
33803;DHT22;20110;53.120;5.786;2023-01-04T09:36:13;9.90;99.90
33803;DHT22;20110;53.120;5.786;2023-01-04T09:38:40;9.90;99.90
33803;DHT22;20110;53.120;5.786;2023-01-04T09:41:17;10.00;99.90
33803;DHT22;20110;53.120;5.786;2023-01-04T09:43:57;10.10;99.90
33803;DHT22;20110;53.120;5.786;2023-01-04T09:46:46;10.10;99.90
33803;DHT22;20110;53.120;5.786;2023-01-04T09:52:01;10.20;99.90
33803;DHT22;20110;53.120;5.786;2023-01-04T09:54:43;10.20;99.90
33803;DHT22;20110;53.120;5.786;2023-01-04T09:57:39;10.20;99.90
33803;DHT22;20110;53.120;5.786;2023-01-04T10:00:20;10.20;99.90
33803;DHT22;20110;53.120;5.786;2023-01-04T10:02:55;10.20;99.90
33803;DHT22;20110;53.120;5.786;2023-01-04T10:05:26;10.20;99.90
33803;DHT22;20110;53.120;5.786;2023-01-04T10:07:55;10.30;99.90
33803;DHT22;20110;53.120;5.786;2023-01-04T10:10:51;10.40;99.90
33803;DHT22;20110;53.120;5.786;2023-01-04T10:31:46;10.70;99.90
33803;DHT22;20110;53.120;5.786;2023-01-04T10:34:40;10.60;99.90
33803;DHT22;20110;53.120;5.786;2023-01-04T10:37:31;10.60;99.90
33803;DHT22;20110;53.120;5.786;2023-01-04T10:40:00;10.60;99.90
33803;DHT22;20110;53.120;5.786;2023-01-04T10:43:06;10.70;99.90
33803;DHT22;20110;53.120;5.786;2023-01-04T10:50:57;10.70;99.90
33803;DHT22;20110;53.120;5.786;2023-01-04T10:53:42;10.60;99.90
33803;DHT22;20110;53.120;5.786;2023-01-04T10:56:32;10.50;99.90
33803;DHT22;20110;53.120;5.786;2023-01-04T10:59:08;10.40;99.90
33803;DHT22;20110;53.120;5.786;2023-01-04T11:01:52;10.40;99.90
33803;DHT22;20110;53.120;5.786;2023-01-04T11:07:05;10.20;99.90
33803;DHT22;20110;53.120;5.786;2023-01-04T11:09:45;10.10;99.90
33803;DHT22;20110;53.120;5.786;2023-01-04T11:12:20;10.10;99.90
33803;DHT22;20110;53.120;5.786;2023-01-04T11:14:48;10.20;99.90
33803;DHT22;20110;53.120;5.786;2023-01-04T11:17:17;10.30;99.90
33803;DHT22;20110;53.120;5.786;2023-01-04T11:19:46;10.40;99.90
33803;DHT22;20110;53.120;5.786;2023-01-04T11:25:00;10.40;99.90
33803;DHT22;20110;53.120;5.786;2023-01-04T11:27:33;10.50;99.90
33803;DHT22;20110;53.120;5.786;2023-01-04T11:30:20;10.60;99.90
33803;DHT22;20110;53.120;5.786;2023-01-04T11:32:56;10.60;99.90
33803;DHT22;20110;53.120;5.786;2023-01-04T11:38:19;10.60;99.90
33803;DHT22;20110;53.120;5.786;2023-01-04T11:41:04;10.60;99.90
33803;DHT22;20110;53.120;5.786;2023-01-04T11:43:37;10.60;99.90
33803;DHT22;20110;53.120;5.786;2023-01-04T11:46:20;10.60;99.90
33803;DHT22;20110;53.120;5.786;2023-01-04T11:48:49;10.50;99.90
33803;DHT22;20110;53.120;5.786;2023-01-04T11:51:34;10.60;99.90
33803;DHT22;20110;53.120;5.786;2023-01-04T11:54:04;10.70;99.90
33803;DHT22;20110;53.120;5.786;2023-01-04T11:57:03;10.60;99.90
33803;DHT22;20110;53.120;5.786;2023-01-04T11:59:36;10.70;99.90
33803;DHT22;20110;53.120;5.786;2023-01-04T12:02:25;10.60;99.90
33803;DHT22;20110;53.120;5.786;2023-01-04T12:04:52;10.60;99.90
33803;DHT22;20110;53.120;5.786;2023-01-04T12:07:32;10.60;99.90
33803;DHT22;20110;53.120;5.786;2023-01-04T12:10:01;10.60;99.90
33803;DHT22;20110;53.120;5.786;2023-01-04T12:12:40;10.60;99.90
33803;DHT22;20110;53.120;5.786;2023-01-04T12:15:16;10.60;99.90
33803;DHT22;20110;53.120;5.786;2023-01-04T12:17:54;10.60;99.90
33803;DHT22;20110;53.120;5.786;2023-01-04T12:20:26;10.70;99.90
33803;DHT22;20110;53.120;5.786;2023-01-04T12:22:53;10.60;99.90
33803;DHT22;20110;53.120;5.786;2023-01-04T12:28:38;10.50;99.90
33803;DHT22;20110;53.120;5.786;2023-01-04T12:33:46;10.60;99.90
33803;DHT22;20110;53.120;5.786;2023-01-04T12:47:03;10.40;99.90
33803;DHT22;20110;53.120;5.786;2023-01-04T12:52:51;10.40;99.90
33803;DHT22;20110;53.120;5.786;2023-01-04T12:58:01;10.40;99.90
33803;DHT22;20110;53.120;5.786;2023-01-04T13:03:47;10.50;99.90
33803;DHT22;20110;53.120;5.786;2023-01-04T13:06:19;10.40;99.90
33803;DHT22;20110;53.120;5.786;2023-01-04T13:08:50;10.30;99.90
33803;DHT22;20110;53.120;5.786;2023-01-04T13:11:50;10.40;99.90
33803;DHT22;20110;53.120;5.786;2023-01-04T13:15:01;10.50;99.90
33803;DHT22;20110;53.120;5.786;2023-01-04T13:17:38;10.40;99.90
33803;DHT22;20110;53.120;5.786;2023-01-04T13:20:30;10.40;99.90
33803;DHT22;20110;53.120;5.786;2023-01-04T13:23:02;10.50;99.90
33803;DHT22;20110;53.120;5.786;2023-01-04T13:25:29;10.40;99.90
33803;DHT22;20110;53.120;5.786;2023-01-04T13:27:58;10.30;99.90
33803;DHT22;20110;53.120;5.786;2023-01-04T13:30:40;10.30;99.90
33803;DHT22;20110;53.120;5.786;2023-01-04T13:33:17;10.20;99.90
33803;DHT22;20110;53.120;5.786;2023-01-04T13:35:59;10.40;99.90
33803;DHT22;20110;53.120;5.786;2023-01-04T13:38:29;10.40;99.90
33803;DHT22;20110;53.120;5.786;2023-01-04T13:40:59;10.40;99.90
33803;DHT22;20110;53.120;5.786;2023-01-04T13:43:59;10.40;99.90
33803;DHT22;20110;53.120;5.786;2023-01-04T13:46:52;10.30;99.90
33803;DHT22;20110;53.120;5.786;2023-01-04T13:49:22;10.20;99.90
33803;DHT22;20110;53.120;5.786;2023-01-04T13:51:52;10.20;99.90
33803;DHT22;20110;53.120;5.786;2023-01-04T13:54:22;10.20;99.90
33803;DHT22;20110;53.120;5.786;2023-01-04T13:56:49;10.30;99.90
33803;DHT22;20110;53.120;5.786;2023-01-04T13:59:17;10.30;99.90
33803;DHT22;20110;53.120;5.786;2023-01-04T14:01:46;10.30;99.90
33803;DHT22;20110;53.120;5.786;2023-01-04T14:04:28;10.30;99.90
33803;DHT22;20110;53.120;5.786;2023-01-04T14:06:59;10.20;99.90
33803;DHT22;20110;53.120;5.786;2023-01-04T14:09:36;10.20;99.90
33803;DHT22;20110;53.120;5.786;2023-01-04T14:12:14;10.00;99.90
33803;DHT22;20110;53.120;5.786;2023-01-04T14:14:47;10.20;99.90
33803;DHT22;20110;53.120;5.786;2023-01-04T14:17:53;10.10;99.90
33803;DHT22;20110;53.120;5.786;2023-01-04T14:36:09;10.10;99.90
33803;DHT22;20110;53.120;5.786;2023-01-04T14:39:38;10.20;99.90
33803;DHT22;20110;53.120;5.786;2023-01-04T14:44:16;10.10;99.90
33803;DHT22;20110;53.120;5.786;2023-01-04T14:46:48;10.10;99.90
33803;DHT22;20110;53.120;5.786;2023-01-04T14:49:16;10.00;99.90
33803;DHT22;20110;53.120;5.786;2023-01-04T14:51:47;9.90;99.90
33803;DHT22;20110;53.120;5.786;2023-01-04T14:54:17;10.00;99.90
33803;DHT22;20110;53.120;5.786;2023-01-04T14:56:43;10.00;99.90
33803;DHT22;20110;53.120;5.786;2023-01-04T14:59:10;10.10;99.90
33803;DHT22;20110;53.120;5.786;2023-01-04T15:01:36;10.10;99.90
33803;DHT22;20110;53.120;5.786;2023-01-04T15:04:03;10.00;99.90
33803;DHT22;20110;53.120;5.786;2023-01-04T15:06:29;10.00;99.90
33803;DHT22;20110;53.120;5.786;2023-01-04T15:08:55;10.00;99.90
33803;DHT22;20110;53.120;5.786;2023-01-04T15:11:21;9.80;99.90
33803;DHT22;20110;53.120;5.786;2023-01-04T15:13:47;9.90;99.90
33803;DHT22;20110;53.120;5.786;2023-01-04T15:16:15;10.00;99.90
33803;DHT22;20110;53.120;5.786;2023-01-04T15:18:43;9.90;99.90
33803;DHT22;20110;53.120;5.786;2023-01-04T15:21:10;9.90;99.90
33803;DHT22;20110;53.120;5.786;2023-01-04T15:23:37;9.90;99.90
33803;DHT22;20110;53.120;5.786;2023-01-04T15:26:05;9.90;99.90
33803;DHT22;20110;53.120;5.786;2023-01-04T15:28:32;9.80;99.90
33803;DHT22;20110;53.120;5.786;2023-01-04T15:30:58;9.70;99.90
33803;DHT22;20110;53.120;5.786;2023-01-04T15:33:26;9.70;99.90
33803;DHT22;20110;53.120;5.786;2023-01-04T15:36:04;9.60;99.90
33803;DHT22;20110;53.120;5.786;2023-01-04T15:38:36;9.80;99.90
33803;DHT22;20110;53.120;5.786;2023-01-04T15:41:11;9.80;99.90
33803;DHT22;20110;53.120;5.786;2023-01-04T15:43:58;9.80;99.90
33803;DHT22;20110;53.120;5.786;2023-01-04T15:46:24;9.80;99.90
33803;DHT22;20110;53.120;5.786;2023-01-04T15:48:50;9.80;99.90
33803;DHT22;20110;53.120;5.786;2023-01-04T15:51:16;9.80;99.90
33803;DHT22;20110;53.120;5.786;2023-01-04T15:53:42;9.70;99.90
33803;DHT22;20110;53.120;5.786;2023-01-04T15:56:10;9.70;99.90
33803;DHT22;20110;53.120;5.786;2023-01-04T15:58:37;9.80;99.90
33803;DHT22;20110;53.120;5.786;2023-01-04T16:01:11;9.90;99.90
33803;DHT22;20110;53.120;5.786;2023-01-04T16:03:39;9.90;99.90
33803;DHT22;20110;53.120;5.786;2023-01-04T16:06:10;9.90;99.90
33803;DHT22;20110;53.120;5.786;2023-01-04T16:08:38;9.90;99.90
33803;DHT22;20110;53.120;5.786;2023-01-04T16:11:13;9.90;99.90
33803;DHT22;20110;53.120;5.786;2023-01-04T16:13:42;9.80;99.90
33803;DHT22;20110;53.120;5.786;2023-01-04T16:16:09;9.90;99.90
33803;DHT22;20110;53.120;5.786;2023-01-04T16:18:36;9.90;99.90
33803;DHT22;20110;53.120;5.786;2023-01-04T16:21:08;9.90;99.90
33803;DHT22;20110;53.120;5.786;2023-01-04T16:23:35;9.90;99.90
33803;DHT22;20110;53.120;5.786;2023-01-04T16:26:12;9.90;99.90
33803;DHT22;20110;53.120;5.786;2023-01-04T16:28:39;10.00;99.90
33803;DHT22;20110;53.120;5.786;2023-01-04T16:31:07;9.90;99.90
33803;DHT22;20110;53.120;5.786;2023-01-04T16:33:33;9.90;99.90
33803;DHT22;20110;53.120;5.786;2023-01-04T16:36:09;9.80;99.90
33803;DHT22;20110;53.120;5.786;2023-01-04T16:38:40;9.90;99.90
33803;DHT22;20110;53.120;5.786;2023-01-04T16:41:11;9.90;99.90
33803;DHT22;20110;53.120;5.786;2023-01-04T16:44:05;9.80;99.90
33803;DHT22;20110;53.120;5.786;2023-01-04T16:46:35;9.80;99.90
33803;DHT22;20110;53.120;5.786;2023-01-04T16:49:08;9.80;99.90
33803;DHT22;20110;53.120;5.786;2023-01-04T16:51:37;9.70;99.90
33803;DHT22;20110;53.120;5.786;2023-01-04T16:54:06;9.70;99.90
33803;DHT22;20110;53.120;5.786;2023-01-04T16:56:36;9.60;99.90
33803;DHT22;20110;53.120;5.786;2023-01-04T16:59:02;9.80;99.90
33803;DHT22;20110;53.120;5.786;2023-01-04T17:01:36;9.90;99.90
33803;DHT22;20110;53.120;5.786;2023-01-04T17:04:06;9.90;99.90
33803;DHT22;20110;53.120;5.786;2023-01-04T17:06:39;9.80;99.90
33803;DHT22;20110;53.120;5.786;2023-01-04T17:09:11;9.90;99.90
33803;DHT22;20110;53.120;5.786;2023-01-04T17:11:39;9.80;99.90
33803;DHT22;20110;53.120;5.786;2023-01-04T17:14:08;9.70;99.90
33803;DHT22;20110;53.120;5.786;2023-01-04T17:16:40;9.70;99.90
33803;DHT22;20110;53.120;5.786;2023-01-04T17:19:06;9.60;99.90
33803;DHT22;20110;53.120;5.786;2023-01-04T17:21:33;9.70;99.90
33803;DHT22;20110;53.120;5.786;2023-01-04T17:23:59;9.60;99.90
33803;DHT22;20110;53.120;5.786;2023-01-04T17:26:28;9.60;99.90
33803;DHT22;20110;53.120;5.786;2023-01-04T17:29:02;9.50;99.90
33803;DHT22;20110;53.120;5.786;2023-01-04T17:31:31;9.50;99.90
33803;DHT22;20110;53.120;5.786;2023-01-04T17:33:59;9.40;99.90
33803;DHT22;20110;53.120;5.786;2023-01-04T17:36:31;9.40;99.90
33803;DHT22;20110;53.120;5.786;2023-01-04T17:38:58;9.30;99.90
33803;DHT22;20110;53.120;5.786;2023-01-04T17:41:26;9.40;99.90
33803;DHT22;20110;53.120;5.786;2023-01-04T17:43:56;9.40;99.90
33803;DHT22;20110;53.120;5.786;2023-01-04T17:46:29;9.50;99.90
33803;DHT22;20110;53.120;5.786;2023-01-04T17:49:03;9.60;99.90
33803;DHT22;20110;53.120;5.786;2023-01-04T17:51:35;9.40;99.90
33803;DHT22;20110;53.120;5.786;2023-01-04T17:54:03;9.50;99.90
33803;DHT22;20110;53.120;5.786;2023-01-04T17:56:31;9.40;99.90
33803;DHT22;20110;53.120;5.786;2023-01-04T17:59:02;9.30;99.90
33803;DHT22;20110;53.120;5.786;2023-01-04T18:01:31;9.30;99.90
33803;DHT22;20110;53.120;5.786;2023-01-04T18:04:01;9.40;99.90
33803;DHT22;20110;53.120;5.786;2023-01-04T18:06:31;9.20;99.90